Time;durP1;ratioP1;P1;durP2;ratioP2;P2;SDS_P1;SDS_P2;PMS_P1;PMS_P2;Temp;Humidity;BMP_temperature;BMP_pressure;BME280_temperature;BME280_humidity;BME280_pressure;Samples;Min_cycle;Max_cycle;Signal;HPM_P1;HPM_P2
2023/03/25 00:01:13;;;;;;;6.40;1.80;;;9.30;99.90;;;;;;5085895;28;20041;-82
2023/03/25 00:03:41;;;;;;;7.18;1.58;;;9.30;99.90;;;;;;5069445;28;20043;-82
2023/03/25 00:06:09;;;;;;;8.18;1.70;;;9.30;99.90;;;;;;5086056;28;20041;-82
2023/03/25 00:08:36;;;;;;;4.97;1.50;;;9.30;99.90;;;;;;5069544;28;20040;-82
2023/03/25 00:11:05;;;;;;;7.68;1.55;;;9.30;99.90;;;;;;5069145;28;20064;-82
2023/03/25 00:13:32;;;;;;;5.45;1.55;;;9.30;99.90;;;;;;5069822;28;20087;-82
2023/03/25 00:16:03;;;;;;;12.65;1.77;;;9.30;99.90;;;;;;5085609;28;20553;-82
2023/03/25 00:18:32;;;;;;;7.60;1.75;;;9.30;99.90;;;;;;5085966;28;20033;-82
2023/03/25 00:21:04;;;;;;;10.07;1.80;;;9.30;99.90;;;;;;5085517;28;20393;-82
2023/03/25 00:23:31;;;;;;;7.75;2.25;;;9.40;99.90;;;;;;5069382;28;20037;-82
2023/03/25 00:25:59;;;;;;;6.95;1.20;;;9.40;99.90;;;;;;5085732;28;20037;-82
2023/03/25 00:28:29;;;;;;;7.70;1.80;;;9.40;99.90;;;;;;5102405;28;20835;-82
2023/03/25 00:31:02;;;;;;;9.10;1.58;;;9.40;99.90;;;;;;5085391;28;20040;-82
2023/03/25 00:33:30;;;;;;;5.18;1.30;;;9.40;99.90;;;;;;5085077;28;20904;-82
2023/03/25 00:36:00;;;;;;;9.52;2.30;;;9.40;99.90;;;;;;5068927;28;20123;-82
2023/03/25 00:38:33;;;;;;;8.15;2.10;;;9.40;99.90;;;;;;5102269;28;20044;-82
2023/03/25 00:41:21;;;;;;;7.63;1.75;;;9.40;99.90;;;;;;5101902;28;20106;-82
2023/03/25 00:43:53;;;;;;;7.95;1.98;;;9.40;99.90;;;;;;5069212;28;20041;-82
2023/03/25 00:46:21;;;;;;;7.57;2.00;;;9.30;99.90;;;;;;5085547;28;20093;-82
2023/03/25 00:48:49;;;;;;;8.45;1.98;;;9.30;99.90;;;;;;5102020;28;20056;-82
2023/03/25 00:51:20;;;;;;;10.32;1.70;;;9.30;99.90;;;;;;5069210;28;20083;-82
2023/03/25 00:53:54;;;;;;;9.77;2.22;;;9.30;99.90;;;;;;5073728;28;20048;-82
2023/03/25 00:56:22;;;;;;;6.85;1.60;;;9.30;99.90;;;;;;5089814;28;20040;-82
2023/03/25 00:58:50;;;;;;;11.43;1.70;;;9.30;99.90;;;;;;5089068;28;20127;-82
2023/03/25 01:01:22;;;;;;;13.07;1.90;;;9.30;99.90;;;;;;5072878;28;20486;-82
2023/03/25 01:03:58;;;;;;;12.75;2.05;;;9.30;99.90;;;;;;5072804;28;20037;-82
2023/03/25 01:06:28;;;;;;;9.82;1.55;;;9.30;99.90;;;;;;5072695;28;20124;-82
2023/03/25 01:08:56;;;;;;;6.25;1.58;;;9.40;99.90;;;;;;5072878;28;20041;-82
2023/03/25 01:11:29;;;;;;;8.38;1.88;;;9.30;99.90;;;;;;5089028;28;20049;-82
2023/03/25 01:13:58;;;;;;;9.07;1.70;;;9.40;99.90;;;;;;5072823;28;20126;-82
2023/03/25 01:16:25;;;;;;;5.38;1.60;;;9.40;99.90;;;;;;5089016;28;20155;-82
2023/03/25 01:18:53;;;;;;;10.65;1.65;;;9.30;99.90;;;;;;5088879;28;20585;-82
2023/03/25 01:21:20;;;;;;;4.72;1.35;;;9.20;99.90;;;;;;5072611;28;20432;-82
2023/03/25 01:23:47;;;;;;;7.30;1.40;;;9.00;99.90;;;;;;5072746;28;20120;-82
2023/03/25 01:26:14;;;;;;;8.57;1.60;;;9.00;99.90;;;;;;5088746;28;20066;-82
2023/03/25 01:28:42;;;;;;;6.40;1.70;;;8.80;99.90;;;;;;5122863;28;20413;-83
2023/03/25 01:31:11;;;;;;;6.20;1.40;;;8.70;99.90;;;;;;5088630;28;20048;-83
2023/03/25 01:33:39;;;;;;;11.25;2.00;;;8.70;99.90;;;;;;5106066;28;20051;-83
2023/03/25 01:36:11;;;;;;;12.23;1.92;;;8.60;99.90;;;;;;5088504;28;20041;-83
2023/03/25 01:38:39;;;;;;;10.95;1.80;;;8.50;99.90;;;;;;5088023;28;20194;-83
2023/03/25 01:41:07;;;;;;;10.00;2.55;;;8.50;99.90;;;;;;5088537;28;20076;-83
2023/03/25 01:43:36;;;;;;;9.80;1.88;;;8.50;99.90;;;;;;5071973;28;20036;-83
2023/03/25 01:46:03;;;;;;;10.43;1.60;;;8.50;99.90;;;;;;5071634;28;20037;-83
2023/03/25 01:48:34;;;;;;;14.20;2.22;;;8.40;99.90;;;;;;5072123;28;20449;-82
2023/03/25 01:51:11;;;;;;;10.25;1.70;;;8.40;99.90;;;;;;5105161;28;20047;-83
2023/03/25 01:53:39;;;;;;;11.52;1.80;;;8.30;99.90;;;;;;5071898;28;20041;-83
2023/03/25 01:56:09;;;;;;;6.95;1.77;;;8.30;99.90;;;;;;5088088;28;20560;-83
2023/03/25 01:58:36;;;;;;;10.43;2.60;;;8.30;99.90;;;;;;5072004;28;20041;-83
2023/03/25 02:01:03;;;;;;;9.05;1.70;;;8.30;99.90;;;;;;5104415;28;20481;-82
2023/03/25 02:03:35;;;;;;;7.53;1.52;;;8.30;99.90;;;;;;5070890;28;20033;-83
2023/03/25 02:06:11;;;;;;;7.90;1.73;;;8.30;99.90;;;;;;5071372;28;20044;-82
2023/03/25 02:08:40;;;;;;;;;;;8.30;99.90;;;;;;5072094;28;20049;-83
2023/03/25 02:11:09;;;;;;;11.65;2.05;;;8.20;99.90;;;;;;5054938;28;19928;-83
2023/03/25 02:13:40;;;;;;;7.00;1.80;;;8.20;99.90;;;;;;5088737;28;20056;-83
2023/03/25 02:16:25;;;;;;;10.27;1.88;;;8.20;99.90;;;;;;5088262;28;20512;-83
2023/03/25 02:19:13;;;;;;;7.75;1.50;;;8.20;99.90;;;;;;5088101;28;20045;-83
2023/03/25 02:21:52;;;;;;;10.20;1.85;;;8.20;99.90;;;;;;5104853;28;20036;-83
2023/03/25 02:24:22;;;;;;;11.75;2.20;;;8.20;99.90;;;;;;5104638;28;20739;-83
2023/03/25 02:27:12;;;;;;;7.38;1.83;;;8.20;99.90;;;;;;5104572;28;20409;-82
2023/03/25 02:30:05;;;;;;;9.60;3.17;;;8.20;99.90;;;;;;5104708;28;20045;-82
2023/03/25 02:32:55;;;;;;;17.85;2.30;;;8.20;99.90;;;;;;5088585;28;20456;-82
2023/03/25 02:35:52;;;;;;;11.07;2.40;;;8.20;99.90;;;;;;5071327;28;20511;-82
2023/03/25 02:38:35;;;;;;;8.60;1.98;;;8.20;99.90;;;;;;5071025;28;20076;-82
2023/03/25 02:41:24;;;;;;;12.88;2.20;;;8.20;99.90;;;;;;5087562;28;20041;-82
2023/03/25 02:44:06;;;;;;;12.98;2.28;;;8.20;99.90;;;;;;5070962;28;20631;-82
2023/03/25 02:46:35;;;;;;;7.25;1.73;;;8.20;99.90;;;;;;5071191;28;20076;-82
2023/03/25 02:49:09;;;;;;;10.70;2.03;;;8.20;99.90;;;;;;5087233;28;20128;-82
2023/03/25 02:51:42;;;;;;;10.88;2.10;;;8.20;99.90;;;;;;5071173;28;20052;-82
2023/03/25 02:54:12;;;;;;;5.85;2.13;;;8.30;99.90;;;;;;5070682;28;20037;-82
2023/03/25 02:56:43;;;;;;;10.00;2.58;;;8.20;99.90;;;;;;5087458;28;20049;-82
2023/03/25 02:59:13;;;;;;;14.70;2.45;;;8.30;99.90;;;;;;5066785;28;20796;-82
2023/03/25 03:01:40;;;;;;;14.85;2.33;;;8.30;99.90;;;;;;5066991;28;20041;-82
2023/03/25 03:04:07;;;;;;;10.48;2.45;;;8.30;99.90;;;;;;5078005;28;20048;-82
2023/03/25 03:06:40;;;;;;;13.65;2.45;;;8.30;99.90;;;;;;5103943;28;20493;-82
2023/03/25 03:09:24;;;;;;;10.23;2.40;;;8.30;99.90;;;;;;5069905;28;20072;-82
2023/03/25 03:12:02;;;;;;;11.75;2.40;;;8.30;99.90;;;;;;5070557;28;20571;-82
2023/03/25 03:15:14;;;;;;;17.08;2.50;;;8.30;99.90;;;;;;5069730;28;20044;-82
2023/03/25 03:18:05;;;;;;;16.45;3.17;;;8.30;99.90;;;;;;5103692;28;20783;-82
2023/03/25 03:20:35;;;;;;;15.10;2.90;;;8.30;99.90;;;;;;5103649;28;20107;-82
2023/03/25 03:23:22;;;;;;;17.00;3.10;;;8.20;99.90;;;;;;5070522;28;20121;-82
2023/03/25 03:25:51;;;;;;;13.90;2.70;;;8.20;99.90;;;;;;5103866;28;20045;-82
2023/03/25 03:29:00;;;;;;;11.18;2.38;;;8.20;99.90;;;;;;5120211;28;20045;-82
2023/03/25 03:31:40;;;;;;;12.38;2.72;;;8.20;99.90;;;;;;5092438;28;20083;-82
2023/03/25 03:34:14;;;;;;;12.30;2.67;;;8.20;99.90;;;;;;5072325;28;20063;-82
2023/03/25 03:36:47;;;;;;;11.77;2.83;;;8.10;99.90;;;;;;5070328;28;20045;-82
2023/03/25 03:39:27;;;;;;;11.57;2.85;;;8.10;99.90;;;;;;5086545;28;20041;-82
2023/03/25 03:42:02;;;;;;;15.85;2.55;;;8.10;99.90;;;;;;5069977;28;20033;-82
2023/03/25 03:44:33;;;;;;;13.50;2.40;;;8.10;99.90;;;;;;5086161;28;20059;-82
2023/03/25 03:47:11;;;;;;;9.25;2.08;;;8.10;99.90;;;;;;5069978;28;20276;-82
2023/03/25 03:49:43;;;;;;;15.50;2.40;;;8.10;99.90;;;;;;5069407;28;20405;-82
2023/03/25 03:52:24;;;;;;;15.77;3.13;;;8.00;99.90;;;;;;5085906;28;20612;-82
2023/03/25 03:54:56;;;;;;;11.35;2.60;;;8.00;99.90;;;;;;5086176;28;20124;-82
2023/03/25 03:57:31;;;;;;;13.98;2.28;;;8.10;99.90;;;;;;5069536;28;20047;-82
2023/03/25 04:00:08;;;;;;;;;;;8.00;99.90;;;;;;5070423;28;20040;-82
2023/03/25 04:02:49;;;;;;;12.00;2.67;;;8.10;99.90;;;;;;5069813;28;19916;-82
2023/03/25 04:05:18;;;;;;;8.25;1.90;;;8.10;99.90;;;;;;5069703;28;20040;-82
2023/03/25 04:07:57;;;;;;;12.65;2.72;;;8.00;99.90;;;;;;5069714;28;20045;-82
2023/03/25 04:10:38;;;;;;;14.57;3.03;;;8.00;99.90;;;;;;5085679;28;20078;-82
2023/03/25 04:13:10;;;;;;;14.05;2.72;;;8.00;99.90;;;;;;5069906;28;20043;-82
2023/03/25 04:15:37;;;;;;;17.20;2.83;;;8.00;99.90;;;;;;5085860;28;20047;-82
2023/03/25 04:18:04;;;;;;;15.35;2.88;;;8.00;99.90;;;;;;5102748;28;20052;-82
2023/03/25 04:20:35;;;;;;;10.93;2.30;;;8.00;99.90;;;;;;5068903;28;20041;-82
2023/03/25 04:23:08;;;;;;;10.52;2.67;;;8.00;99.90;;;;;;5069582;28;20489;-82
2023/03/25 04:25:35;;;;;;;9.73;2.72;;;8.00;99.90;;;;;;5087071;28;20086;-82
2023/03/25 04:28:02;;;;;;;12.40;2.35;;;8.00;99.90;;;;;;5068599;28;20072;-82
2023/03/25 04:30:29;;;;;;;11.48;2.28;;;8.00;99.90;;;;;;5069217;28;20405;-82
2023/03/25 04:32:56;;;;;;;18.08;2.60;;;8.10;99.90;;;;;;5102739;28;20049;-82
2023/03/25 04:35:24;;;;;;;9.35;2.53;;;8.00;99.90;;;;;;5085514;28;20045;-82
2023/03/25 04:37:56;;;;;;;12.18;2.88;;;8.00;99.90;;;;;;5069001;28;20401;-82
2023/03/25 04:40:24;;;;;;;20.50;3.10;;;8.10;99.90;;;;;;5101518;28;20048;-82
2023/03/25 04:42:52;;;;;;;14.05;2.92;;;8.00;99.90;;;;;;5102343;28;20041;-82
2023/03/25 04:45:20;;;;;;;14.73;3.13;;;8.00;99.90;;;;;;5102103;28;20087;-82
2023/03/25 04:47:48;;;;;;;10.68;2.80;;;8.00;99.90;;;;;;5069077;28;20120;-81
2023/03/25 04:50:22;;;;;;;7.90;2.70;;;8.00;99.90;;;;;;5085678;28;20041;-82
2023/03/25 04:52:50;;;;;;;17.13;2.40;;;8.00;99.90;;;;;;5068808;28;20103;-82
2023/03/25 04:55:18;;;;;;;13.70;2.88;;;8.00;99.90;;;;;;5085486;28;20564;-82
2023/03/25 04:57:46;;;;;;;12.60;2.80;;;8.00;99.90;;;;;;5102198;28;20505;-82
2023/03/25 05:00:15;;;;;;;11.15;3.33;;;8.00;99.90;;;;;;5085346;28;20079;-82
2023/03/25 05:02:50;;;;;;;8.77;2.75;;;8.00;99.90;;;;;;5085516;28;20049;-82
2023/03/25 05:05:19;;;;;;;11.82;2.38;;;8.00;99.90;;;;;;5085479;28;20044;-82
2023/03/25 05:07:52;;;;;;;12.10;3.08;;;8.10;99.90;;;;;;5085344;28;20045;-82
2023/03/25 05:10:21;;;;;;;12.48;2.90;;;7.90;99.90;;;;;;5068715;28;20496;-82
2023/03/25 05:12:48;;;;;;;17.15;2.90;;;8.00;99.90;;;;;;5068699;28;20045;-82
2023/03/25 05:15:18;;;;;;;16.25;3.08;;;7.90;99.90;;;;;;5102523;28;20044;-82
2023/03/25 05:17:45;;;;;;;11.48;2.70;;;8.00;99.90;;;;;;5101160;28;20819;-82
2023/03/25 05:20:13;;;;;;;9.43;2.78;;;8.00;99.90;;;;;;5068727;28;20052;-82
2023/03/25 05:22:40;;;;;;;12.85;2.63;;;8.00;99.90;;;;;;5084328;28;20919;-82
2023/03/25 05:25:08;;;;;;;13.40;2.50;;;8.00;99.90;;;;;;5068073;28;20040;-82
2023/03/25 05:27:36;;;;;;;14.98;2.70;;;7.90;99.90;;;;;;5084728;28;20045;-82
2023/03/25 05:30:05;;;;;;;10.63;2.10;;;8.00;99.90;;;;;;5085444;28;20543;-82
2023/03/25 05:32:34;;;;;;;16.58;2.72;;;7.90;99.90;;;;;;5067948;28;20043;-82
2023/03/25 05:35:02;;;;;;;12.07;2.42;;;7.90;99.90;;;;;;5084936;28;20048;-82
2023/03/25 05:37:29;;;;;;;13.25;2.60;;;7.90;99.90;;;;;;5101344;28;20080;-82
2023/03/25 05:39:56;;;;;;;10.05;3.13;;;7.90;99.90;;;;;;5087342;28;20151;-82
2023/03/25 05:42:24;;;;;;;10.50;2.13;;;7.90;99.90;;;;;;5088886;28;20043;-82
2023/03/25 05:44:52;;;;;;;17.35;2.97;;;7.90;99.90;;;;;;5071957;28;20036;-82
2023/03/25 05:47:23;;;;;;;8.82;2.47;;;7.90;99.90;;;;;;5072337;28;20091;-82
2023/03/25 05:49:52;;;;;;;13.30;2.60;;;7.90;99.90;;;;;;5071793;28;20033;-82
2023/03/25 05:52:23;;;;;;;10.10;2.65;;;7.90;99.90;;;;;;5088505;28;20520;-82
2023/03/25 05:54:50;;;;;;;12.80;2.80;;;7.90;99.90;;;;;;5088087;28;20029;-82
2023/03/25 05:57:17;;;;;;;13.35;3.15;;;7.90;99.90;;;;;;5088779;28;20037;-82
2023/03/25 05:59:44;;;;;;;12.68;3.17;;;7.90;99.90;;;;;;5071683;28;20082;-82
2023/03/25 06:02:13;;;;;;;23.30;3.40;;;8.00;99.90;;;;;;5105178;28;20068;-82
2023/03/25 06:04:41;;;;;;;10.77;3.33;;;8.00;99.90;;;;;;5071541;28;20071;-82
2023/03/25 06:07:18;;;;;;;13.65;3.00;;;8.00;99.90;;;;;;5088439;28;20099;-82
2023/03/25 06:09:46;;;;;;;22.92;3.85;;;8.10;99.90;;;;;;5071769;28;20037;-82
2023/03/25 06:12:15;;;;;;;13.55;2.45;;;8.10;99.90;;;;;;5105007;28;20448;-82
2023/03/25 06:14:44;;;;;;;12.43;2.60;;;8.10;99.90;;;;;;5104122;28;20045;-82
2023/03/25 06:17:17;;;;;;;13.90;2.60;;;8.10;99.90;;;;;;5104745;28;20036;-82
2023/03/25 06:19:44;;;;;;;21.58;3.45;;;8.10;99.90;;;;;;5104268;28;20045;-82
2023/03/25 06:22:11;;;;;;;11.57;2.38;;;8.10;99.90;;;;;;5071630;28;20374;-82
2023/03/25 06:24:39;;;;;;;16.52;3.20;;;8.10;99.90;;;;;;5087988;28;20037;-82
2023/03/25 06:27:11;;;;;;;16.45;2.75;;;8.10;99.90;;;;;;5071199;28;20429;-82
2023/03/25 06:29:38;;;;;;;16.10;2.90;;;8.10;99.90;;;;;;5088034;28;20048;-82
2023/03/25 06:32:05;;;;;;;14.50;2.70;;;8.20;99.90;;;;;;5104595;28;20504;-82
2023/03/25 06:34:31;;;;;;;17.30;3.10;;;8.20;99.90;;;;;;5087694;28;20033;-82
2023/03/25 06:37:00;;;;;;;17.63;3.25;;;8.20;99.90;;;;;;5070758;28;20051;-82
2023/03/25 06:39:29;;;;;;;16.23;3.00;;;8.20;99.90;;;;;;5087420;28;20493;-82
2023/03/25 06:41:57;;;;;;;12.57;2.28;;;8.20;99.90;;;;;;5087066;28;20033;-82
2023/03/25 06:44:24;;;;;;;15.05;2.47;;;8.20;99.90;;;;;;5087561;28;20037;-82
2023/03/25 06:46:51;;;;;;;11.88;2.38;;;8.20;99.90;;;;;;5103608;28;20036;-82
2023/03/25 06:49:21;;;;;;;11.82;2.65;;;8.20;99.90;;;;;;5087253;28;20040;-82
2023/03/25 06:51:48;;;;;;;13.85;2.85;;;8.20;99.90;;;;;;5103609;28;20095;-82
2023/03/25 06:54:15;;;;;;;15.63;2.67;;;8.30;99.90;;;;;;5071124;28;20493;-82
2023/03/25 06:56:41;;;;;;;10.43;2.45;;;8.20;99.90;;;;;;5070278;28;20041;-82
2023/03/25 06:59:08;;;;;;;14.05;2.40;;;8.20;99.90;;;;;;5070456;28;20497;-82
2023/03/25 07:01:35;;;;;;;10.32;1.92;;;8.20;99.90;;;;;;5087395;28;20048;-82
2023/03/25 07:04:02;;;;;;;11.73;2.75;;;8.20;99.90;;;;;;5070403;28;20606;-82
2023/03/25 07:06:30;;;;;;;12.82;2.22;;;8.20;99.90;;;;;;5086953;28;20123;-82
2023/03/25 07:08:56;;;;;;;11.15;2.15;;;8.20;99.90;;;;;;5103327;28;20576;-82
2023/03/25 07:11:27;;;;;;;14.60;2.10;;;8.10;99.90;;;;;;5070059;28;20140;-82
2023/03/25 07:13:55;;;;;;;13.88;2.40;;;8.10;99.90;;;;;;5103793;28;20060;-82
2023/03/25 07:16:22;;;;;;;14.38;2.45;;;8.10;99.90;;;;;;5070182;28;20838;-82
2023/03/25 07:18:50;;;;;;;12.48;2.30;;;8.10;99.90;;;;;;5103296;28;20049;-82
2023/03/25 07:21:17;;;;;;;14.50;2.33;;;8.20;99.90;;;;;;5086760;28;20455;-82
2023/03/25 07:23:44;;;;;;;10.45;2.05;;;8.20;99.90;;;;;;5070136;28;20099;-82
2023/03/25 07:26:12;;;;;;;15.77;2.58;;;8.30;99.90;;;;;;5103384;28;20087;-82
2023/03/25 07:28:39;;;;;;;18.85;2.78;;;8.20;99.90;;;;;;5069875;28;20080;-82
2023/03/25 07:31:11;;;;;;;13.20;2.75;;;8.30;99.90;;;;;;5070352;28;20040;-82
2023/03/25 07:33:38;;;;;;;13.68;2.72;;;8.20;99.90;;;;;;5070146;28;20044;-82
2023/03/25 07:36:07;;;;;;;13.25;2.63;;;8.30;99.90;;;;;;5085893;28;20032;-82
2023/03/25 07:38:34;;;;;;;18.45;2.90;;;8.30;99.90;;;;;;5085859;28;20049;-82
2023/03/25 07:41:11;;;;;;;10.75;2.70;;;8.30;99.90;;;;;;5103087;28;20045;-82
2023/03/25 07:43:38;;;;;;;19.80;2.95;;;8.40;99.90;;;;;;5102676;28;20134;-82
2023/03/25 07:46:05;;;;;;;14.35;2.88;;;8.50;99.90;;;;;;5086316;28;20044;-82
2023/03/25 07:48:32;;;;;;;16.52;2.13;;;8.60;99.90;;;;;;5086278;28;20446;-82
2023/03/25 07:50:59;;;;;;;17.23;2.40;;;8.60;99.90;;;;;;5069396;28;20051;-82
2023/03/25 07:53:26;;;;;;;10.27;2.20;;;8.60;99.90;;;;;;5069988;28;20037;-83
2023/03/25 07:55:53;;;;;;;18.98;2.63;;;8.70;99.90;;;;;;5069370;28;20049;-82
2023/03/25 07:58:19;;;;;;;19.42;2.75;;;8.70;99.90;;;;;;5086064;28;20044;-82
2023/03/25 08:00:46;;;;;;;14.40;2.20;;;8.80;99.90;;;;;;5102323;28;20048;-82
2023/03/25 08:03:14;;;;;;;13.73;2.75;;;8.90;99.90;;;;;;5085655;28;20044;-82
2023/03/25 08:05:47;;;;;;;13.88;2.47;;;8.90;99.90;;;;;;5085859;28;20072;-82
2023/03/25 08:08:14;;;;;;;14.15;2.38;;;8.90;99.90;;;;;;5102532;28;20044;-82
2023/03/25 08:10:42;;;;;;;10.75;2.17;;;8.80;99.90;;;;;;5069308;28;20049;-82
2023/03/25 08:13:10;;;;;;;13.82;2.33;;;8.80;99.90;;;;;;5102233;28;20107;-83
2023/03/25 08:15:38;;;;;;;11.73;2.00;;;8.60;99.90;;;;;;5085447;28;20041;-84
2023/03/25 08:18:05;;;;;;;11.57;2.08;;;8.40;99.90;;;;;;5068958;28;20036;-84
2023/03/25 08:20:33;;;;;;;7.85;1.98;;;8.30;99.90;;;;;;5053025;28;20031;-83
2023/03/25 08:23:01;;;;;;;13.18;2.03;;;8.20;99.90;;;;;;5085570;28;20091;-83
2023/03/25 08:25:31;;;;;;;10.23;2.13;;;8.10;99.90;;;;;;5053122;28;20112;-83
2023/03/25 08:27:58;;;;;;;13.27;2.20;;;8.20;99.90;;;;;;5034129;28;20048;-84
2023/03/25 08:30:24;;;;;;;16.33;2.50;;;8.20;99.90;;;;;;5102486;28;20402;-83
2023/03/25 08:32:53;;;;;;;17.05;1.88;;;8.20;99.90;;;;;;5064751;28;20041;-83
2023/03/25 08:35:22;;;;;;;16.33;2.40;;;8.10;99.90;;;;;;5064765;28;20041;-83
2023/03/25 08:37:50;;;;;;;10.57;2.25;;;8.10;99.90;;;;;;5066644;28;20046;-83
2023/03/25 08:40:17;;;;;;;11.40;2.15;;;8.10;99.90;;;;;;5085537;28;20033;-83
2023/03/25 08:42:45;;;;;;;11.63;2.40;;;8.10;99.90;;;;;;5068309;28;20664;-83
2023/03/25 08:45:14;;;;;;;14.30;3.10;;;8.10;99.90;;;;;;5099447;28;20496;-83
2023/03/25 08:47:42;;;;;;;14.98;2.28;;;8.10;99.90;;;;;;5052216;28;20037;-83
2023/03/25 08:50:09;;;;;;;17.90;2.15;;;8.10;99.90;;;;;;5052272;28;20564;-83
2023/03/25 08:52:35;;;;;;;5.65;1.13;;;8.10;99.90;;;;;;5068571;28;20091;-84
2023/03/25 08:55:03;;;;;;;8.65;1.38;;;8.00;99.90;;;;;;5051492;28;20472;-84
2023/03/25 08:57:30;;;;;;;5.68;1.35;;;8.00;99.90;;;;;;5068507;28;20405;-83
2023/03/25 08:59:57;;;;;;;8.73;1.60;;;8.00;99.90;;;;;;5051262;28;20043;-83
2023/03/25 09:02:24;;;;;;;6.88;1.50;;;7.90;99.90;;;;;;5068445;28;20044;-83
2023/03/25 09:04:51;;;;;;;8.73;1.20;;;7.90;99.90;;;;;;5067963;28;20037;-84
2023/03/25 09:07:18;;;;;;;7.05;1.50;;;7.90;99.90;;;;;;5068618;28;20048;-83
2023/03/25 09:09:45;;;;;;;6.97;1.88;;;8.00;99.90;;;;;;5067972;28;20464;-83
2023/03/25 09:12:12;;;;;;;14.27;1.83;;;8.10;99.90;;;;;;5068033;28;20048;-84
2023/03/25 09:14:39;;;;;;;14.80;2.30;;;8.20;99.90;;;;;;5072304;28;20489;-84
2023/03/25 09:17:06;;;;;;;15.63;2.78;;;8.30;99.90;;;;;;5088275;28;20095;-84
2023/03/25 09:19:34;;;;;;;19.58;2.55;;;8.30;99.90;;;;;;5072148;28;20041;-84
2023/03/25 09:22:00;;;;;;;11.10;1.80;;;8.50;99.90;;;;;;5072086;28;20087;-84
2023/03/25 09:24:27;;;;;;;11.18;2.03;;;8.50;99.90;;;;;;5072181;28;20041;-83
2023/03/25 09:26:54;;;;;;;14.25;2.83;;;8.70;99.90;;;;;;5071806;28;20040;-83
2023/03/25 09:29:20;;;;;;;14.00;2.17;;;8.70;99.90;;;;;;5071686;28;20608;-83
2023/03/25 09:31:47;;;;;;;14.05;2.40;;;8.70;99.90;;;;;;5068266;28;20046;-83
2023/03/25 09:34:14;;;;;;;19.02;4.22;;;8.80;99.90;;;;;;5101377;28;20045;-83
2023/03/25 09:36:41;;;;;;;22.23;3.55;;;8.80;99.90;;;;;;5068416;28;20041;-83
2023/03/25 09:39:08;;;;;;;18.33;2.75;;;9.10;99.90;;;;;;5100948;28;20506;-83
2023/03/25 09:41:37;;;;;;;18.98;2.88;;;9.20;99.90;;;;;;5094626;28;20238;-83
2023/03/25 09:44:29;;;;;;;8.80;2.13;;;9.30;99.90;;;;;;5088024;28;20072;-83
2023/03/25 09:46:58;;;;;;;18.60;2.53;;;9.30;99.90;;;;;;5067840;28;20128;-83
2023/03/25 09:49:41;;;;;;;14.27;3.25;;;9.40;99.90;;;;;;5071024;28;20048;-83
2023/03/25 09:52:15;;;;;;;12.93;2.38;;;9.50;99.90;;;;;;5066530;28;20045;-84
2023/03/25 09:54:48;;;;;;;6.30;1.45;;;9.60;99.90;;;;;;5071668;28;20052;-84
2023/03/25 09:57:25;;;;;;;17.60;2.63;;;9.80;99.90;;;;;;5071569;28;20045;-84
2023/03/25 09:59:55;;;;;;;11.50;1.95;;;9.90;99.90;;;;;;5071188;28;20049;-83
2023/03/25 10:02:36;;;;;;;12.95;2.20;;;10.20;99.90;;;;;;5071220;28;20049;-83
2023/03/25 10:05:15;;;;;;;14.65;2.17;;;10.20;99.90;;;;;;5104678;28;20428;-83
2023/03/25 10:07:54;;;;;;;7.50;1.73;;;10.10;99.90;;;;;;5104834;28;20045;-84
2023/03/25 10:10:52;;;;;;;12.13;2.10;;;10.00;99.90;;;;;;5087836;28;20493;-83
2023/03/25 10:13:31;;;;;;;12.50;1.80;;;10.10;99.90;;;;;;5104030;28;20497;-84
2023/03/25 10:16:07;;;;;;;13.23;2.28;;;10.20;99.90;;;;;;5103970;28;20094;-83
2023/03/25 10:18:40;;;;;;;11.32;2.25;;;10.30;99.90;;;;;;5104585;28;20043;-84
2023/03/25 10:21:15;;;;;;;11.02;2.13;;;10.30;99.90;;;;;;5104145;28;20045;-83
2023/03/25 10:24:23;;;;;;;11.68;2.10;;;10.20;99.90;;;;;;5104316;28;20045;-83
2023/03/25 10:27:10;;;;;;;11.32;2.13;;;10.00;99.90;;;;;;5071257;28;20392;-83
2023/03/25 10:29:45;;;;;;;12.65;1.98;;;10.00;99.90;;;;;;5087325;28;20045;-83
2023/03/25 10:32:29;;;;;;;15.35;2.58;;;10.00;99.90;;;;;;5103569;28;20043;-83
2023/03/25 10:34:57;;;;;;;10.75;2.00;;;10.40;99.90;;;;;;5070956;28;20063;-83
2023/03/25 10:37:29;;;;;;;10.10;2.17;;;10.60;99.90;;;;;;5070757;28;20072;-83
2023/03/25 10:40:18;;;;;;;9.25;2.10;;;10.80;99.90;;;;;;5070913;28;20103;-83
2023/03/25 10:42:57;;;;;;;14.15;1.90;;;10.90;99.90;;;;;;5071082;28;20073;-83
2023/03/25 10:45:25;;;;;;;11.30;2.38;;;11.00;99.90;;;;;;5086830;28;20408;-83
2023/03/25 10:47:59;;;;;;;8.60;1.60;;;10.90;99.90;;;;;;5070727;28;20128;-84
2023/03/25 10:50:26;;;;;;;12.18;1.80;;;10.70;99.90;;;;;;5070695;28;20048;-84
2023/03/25 10:52:55;;;;;;;11.98;1.90;;;10.70;99.90;;;;;;5086818;28;20123;-83
2023/03/25 10:55:26;;;;;;;9.15;1.90;;;10.70;99.90;;;;;;5054361;28;20426;-83
2023/03/25 10:57:55;;;;;;;10.43;2.00;;;10.60;99.90;;;;;;5087227;28;20037;-83
2023/03/25 11:00:23;;;;;;;16.50;2.45;;;10.60;99.90;;;;;;5086470;28;20124;-83
2023/03/25 11:02:50;;;;;;;15.38;2.25;;;10.40;99.90;;;;;;5070181;28;20452;-83
2023/03/25 11:05:23;;;;;;;13.65;2.30;;;10.30;99.90;;;;;;5103369;28;20041;-84
2023/03/25 11:08:00;;;;;;;14.55;2.92;;;10.20;99.90;;;;;;5103481;28;20111;-84
2023/03/25 11:10:34;;;;;;;14.55;1.92;;;10.20;99.90;;;;;;5103243;28;20404;-84
2023/03/25 11:13:06;;;;;;;11.05;2.33;;;10.10;99.90;;;;;;5086683;28;20387;-83
2023/03/25 11:15:35;;;;;;;11.55;2.30;;;10.00;99.90;;;;;;5069694;28;20765;-84
2023/03/25 11:18:30;;;;;;;9.48;2.10;;;9.90;99.90;;;;;;5103054;28;20037;-83
2023/03/25 11:21:04;;;;;;;13.70;2.22;;;9.80;99.90;;;;;;5084486;28;20071;-83
2023/03/25 11:23:49;;;;;;;13.35;2.42;;;9.70;99.90;;;;;;5070334;28;20052;-84
2023/03/25 11:26:22;;;;;;;13.98;2.17;;;9.50;99.90;;;;;;5069706;28;20033;-84
2023/03/25 11:28:55;;;;;;;11.02;2.50;;;9.30;99.90;;;;;;5069576;28;20536;-84
2023/03/25 11:31:28;;;;;;;8.93;1.98;;;9.30;99.90;;;;;;5069897;28;20052;-83
2023/03/25 11:34:20;;;;;;;12.05;1.95;;;9.20;99.90;;;;;;5053733;28;20037;-83
2023/03/25 11:36:54;;;;;;;12.38;2.83;;;9.30;99.90;;;;;;5102291;28;20083;-83
2023/03/25 11:39:32;;;;;;;12.15;2.22;;;9.30;99.90;;;;;;5085929;28;20123;-83
2023/03/25 11:42:10;;;;;;;12.65;1.95;;;9.30;99.90;;;;;;5103335;28;20049;-84
2023/03/25 11:44:36;;;;;;;12.27;2.05;;;9.30;99.90;;;;;;5084821;28;20037;-83
2023/03/25 11:47:06;;;;;;;15.57;2.50;;;9.40;99.90;;;;;;5069701;28;20037;-83
2023/03/25 11:49:37;;;;;;;11.45;2.17;;;9.40;99.90;;;;;;5102710;28;20437;-82
2023/03/25 11:52:44;;;;;;;11.88;3.03;;;9.50;99.90;;;;;;5069079;28;20041;-83
2023/03/25 11:55:25;;;;;;;16.05;2.75;;;9.50;99.90;;;;;;5118840;28;20091;-83
2023/03/25 11:57:55;;;;;;;17.35;2.35;;;9.60;99.90;;;;;;5069273;28;20064;-83
2023/03/25 12:00:45;;;;;;;7.60;1.95;;;9.70;99.90;;;;;;5102311;28;20049;-83
2023/03/25 12:03:12;;;;;;;10.93;1.98;;;9.80;99.90;;;;;;5068834;28;20076;-84
2023/03/25 12:05:40;;;;;;;9.85;2.30;;;10.00;99.90;;;;;;5096510;28;20072;-83
2023/03/25 12:08:15;;;;;;;16.23;1.85;;;10.10;99.90;;;;;;5102588;28;20041;-83
2023/03/25 12:11:12;;;;;;;13.77;2.00;;;10.20;99.90;;;;;;5102268;28;20053;-83
2023/03/25 12:13:49;;;;;;;9.32;1.85;;;10.20;99.90;;;;;;5085657;28;20048;-83
2023/03/25 12:16:18;;;;;;;11.15;1.70;;;10.20;99.90;;;;;;5116876;28;20048;-83
2023/03/25 12:19:03;;;;;;;9.52;2.10;;;10.20;99.90;;;;;;5069003;28;20029;-83
2023/03/25 12:21:52;;;;;;;10.73;1.95;;;10.30;99.90;;;;;;5069057;28;20716;-83
2023/03/25 12:24:56;;;;;;;11.23;2.17;;;10.40;99.90;;;;;;5102020;28;20146;-83
2023/03/25 12:27:23;;;;;;;8.82;1.67;;;10.50;99.90;;;;;;5085197;28;20048;-83
2023/03/25 12:30:20;;;;;;;10.10;2.17;;;10.50;99.90;;;;;;5102149;28;20045;-83
2023/03/25 12:33:05;;;;;;;11.35;2.13;;;10.50;99.90;;;;;;5103072;28;20084;-83
2023/03/25 12:35:59;;;;;;;6.40;1.60;;;10.20;99.90;;;;;;5101485;28;20409;-83
2023/03/25 12:38:40;;;;;;;12.13;2.25;;;10.00;99.90;;;;;;5064476;28;20043;-83
2023/03/25 12:41:15;;;;;;;12.70;2.35;;;10.00;99.90;;;;;;5084970;28;20513;-83
2023/03/25 12:44:12;;;;;;;10.27;2.25;;;10.10;99.90;;;;;;5068881;28;20441;-83
2023/03/25 12:47:07;;;;;;;12.05;1.58;;;10.30;99.90;;;;;;5085296;28;20040;-83
2023/03/25 12:50:21;;;;;;;10.48;1.67;;;10.30;99.90;;;;;;5068197;28;20147;-83
2023/03/25 12:52:51;;;;;;;8.98;1.92;;;10.40;99.90;;;;;;5085452;28;20095;-83
2023/03/25 12:55:39;;;;;;;13.13;1.75;;;10.50;99.90;;;;;;5101728;28;20041;-83
2023/03/25 12:58:18;;;;;;;8.35;1.50;;;10.50;99.90;;;;;;5085394;28;20439;-83
2023/03/25 13:00:57;;;;;;;7.85;1.63;;;10.60;99.90;;;;;;5068784;28;20464;-83
2023/03/25 13:03:56;;;;;;;8.63;1.50;;;10.70;99.90;;;;;;5068491;28;20050;-83
2023/03/25 13:06:23;;;;;;;12.50;2.20;;;10.70;99.90;;;;;;5085155;28;20040;-83
2023/03/25 13:09:00;;;;;;;12.38;1.70;;;10.70;99.90;;;;;;5068533;28;20041;-83
2023/03/25 13:11:38;;;;;;;9.90;1.73;;;10.80;99.90;;;;;;5084757;28;20501;-83
2023/03/25 13:14:12;;;;;;;6.75;1.52;;;10.70;99.90;;;;;;5068675;28;20127;-83
2023/03/25 13:16:42;;;;;;;7.55;1.85;;;10.90;99.90;;;;;;5068050;28;20505;-83